首页
METAR-TAF:

METAR-TAF

机场 :

Fort Rucker, 阿拉巴马州, 美国

纬度: 31-21-32N, 经度: 085-44-54W, 海拔: 78米

当前天气观测

该预报发布于1小时和0分钟前的04:58 UTC
风速4节,风向
温度 26°C
湿度 84%
气压 1019 hPa
能見度: 16.1公里
天空无云

METAR: KLOR 270458Z AUTO 17004KT 10SM CLR 26/23 A3009 RMK AO2 SLP170 T02560229

时间: 00:58 (05:58 UTC)


TAF: 丢失

超过4000个机场的气象观测和天气预报(METAR&TAF报告)。

可查询的气象台以黄色和红色小点在地图上表示。

将鼠标移到小点上方,可查看气象台名称。

然后点击查看天气观测和预报。

如需切换地图:点击带黑十字的绿色按钮放大地图;点击带横线的绿色按钮缩小地图;或者点击绿色箭头查看邻近地区的地图。


METAR-TAF: